sensor_id;sensor_type;location;lat;lon;timestamp;P1;durP1;ratioP1;P2;durP2;ratioP2
23222;SDS011;11780;13.904;100.620;2022-12-29T00:01:27;52.70;;;35.47;;
23222;SDS011;11780;13.904;100.620;2022-12-29T00:03:57;49.42;;;38.58;;
23222;SDS011;11780;13.904;100.620;2022-12-29T00:06:28;52.42;;;37.33;;
23222;SDS011;11780;13.904;100.620;2022-12-29T00:08:58;57.67;;;39.30;;
23222;SDS011;11780;13.904;100.620;2022-12-29T00:11:28;49.67;;;37.17;;
23222;SDS011;11780;13.904;100.620;2022-12-29T00:13:59;52.53;;;38.72;;
23222;SDS011;11780;13.904;100.620;2022-12-29T00:16:52;57.78;;;40.75;;
23222;SDS011;11780;13.904;100.620;2022-12-29T00:19:22;52.95;;;39.55;;
23222;SDS011;11780;13.904;100.620;2022-12-29T00:22:12;50.70;;;38.20;;
23222;SDS011;11780;13.904;100.620;2022-12-29T00:25:02;54.72;;;39.88;;
23222;SDS011;11780;13.904;100.620;2022-12-29T00:27:51;59.50;;;40.50;;
23222;SDS011;11780;13.904;100.620;2022-12-29T00:30:40;57.60;;;39.67;;
23222;SDS011;11780;13.904;100.620;2022-12-29T00:33:30;64.93;;;42.70;;
23222;SDS011;11780;13.904;100.620;2022-12-29T00:38:51;55.50;;;43.78;;
23222;SDS011;11780;13.904;100.620;2022-12-29T00:41:44;57.50;;;42.33;;
23222;SDS011;11780;13.904;100.620;2022-12-29T00:44:33;50.28;;;41.80;;
23222;SDS011;11780;13.904;100.620;2022-12-29T00:47:03;55.00;;;41.97;;
23222;SDS011;11780;13.904;100.620;2022-12-29T00:49:33;62.90;;;44.47;;
23222;SDS011;11780;13.904;100.620;2022-12-29T00:52:07;59.47;;;43.55;;
23222;SDS011;11780;13.904;100.620;2022-12-29T00:54:40;56.47;;;44.58;;
23222;SDS011;11780;13.904;100.620;2022-12-29T00:57:13;61.28;;;45.90;;
23222;SDS011;11780;13.904;100.620;2022-12-29T00:59:44;60.15;;;45.72;;
23222;SDS011;11780;13.904;100.620;2022-12-29T01:02:15;55.27;;;45.33;;
23222;SDS011;11780;13.904;100.620;2022-12-29T01:04:46;58.38;;;42.58;;
23222;SDS011;11780;13.904;100.620;2022-12-29T01:07:16;67.38;;;46.47;;
23222;SDS011;11780;13.904;100.620;2022-12-29T01:12:52;61.17;;;45.17;;
23222;SDS011;11780;13.904;100.620;2022-12-29T01:15:22;66.03;;;46.80;;
23222;SDS011;11780;13.904;100.620;2022-12-29T01:17:52;64.47;;;46.83;;
23222;SDS011;11780;13.904;100.620;2022-12-29T01:20:23;65.43;;;46.65;;
23222;SDS011;11780;13.904;100.620;2022-12-29T01:22:53;57.40;;;45.90;;
23222;SDS011;11780;13.904;100.620;2022-12-29T01:25:24;63.03;;;47.43;;
23222;SDS011;11780;13.904;100.620;2022-12-29T01:27:54;61.28;;;44.03;;
23222;SDS011;11780;13.904;100.620;2022-12-29T01:30:25;63.20;;;44.93;;
23222;SDS011;11780;13.904;100.620;2022-12-29T01:32:55;60.60;;;46.00;;
23222;SDS011;11780;13.904;100.620;2022-12-29T01:35:25;54.13;;;43.20;;
23222;SDS011;11780;13.904;100.620;2022-12-29T01:37:57;62.67;;;46.13;;
23222;SDS011;11780;13.904;100.620;2022-12-29T01:40:27;57.25;;;43.20;;
23222;SDS011;11780;13.904;100.620;2022-12-29T01:42:58;55.92;;;45.92;;
23222;SDS011;11780;13.904;100.620;2022-12-29T01:45:28;63.25;;;46.35;;
23222;SDS011;11780;13.904;100.620;2022-12-29T01:48:01;64.70;;;46.70;;
23222;SDS011;11780;13.904;100.620;2022-12-29T01:50:39;61.47;;;45.58;;
23222;SDS011;11780;13.904;100.620;2022-12-29T01:53:18;61.85;;;48.13;;
23222;SDS011;11780;13.904;100.620;2022-12-29T01:55:55;56.60;;;46.28;;
23222;SDS011;11780;13.904;100.620;2022-12-29T01:58:30;58.15;;;44.75;;
23222;SDS011;11780;13.904;100.620;2022-12-29T02:01:05;58.38;;;46.00;;
23222;SDS011;11780;13.904;100.620;2022-12-29T02:03:36;61.80;;;46.40;;
23222;SDS011;11780;13.904;100.620;2022-12-29T02:06:09;58.97;;;47.73;;
23222;SDS011;11780;13.904;100.620;2022-12-29T02:08:46;63.05;;;50.33;;
23222;SDS011;11780;13.904;100.620;2022-12-29T02:11:21;58.33;;;43.38;;
23222;SDS011;11780;13.904;100.620;2022-12-29T02:13:55;60.45;;;44.47;;
23222;SDS011;11780;13.904;100.620;2022-12-29T02:42:23;48.92;;;36.60;;
23222;SDS011;11780;13.904;100.620;2022-12-29T02:45:04;46.15;;;35.00;;
23222;SDS011;11780;13.904;100.620;2022-12-29T02:50:37;42.85;;;35.30;;
23222;SDS011;11780;13.904;100.620;2022-12-29T02:53:14;42.88;;;33.85;;
23222;SDS011;11780;13.904;100.620;2022-12-29T02:56:06;43.88;;;33.13;;
23222;SDS011;11780;13.904;100.620;2022-12-29T02:58:37;39.78;;;32.67;;
23222;SDS011;11780;13.904;100.620;2022-12-29T03:06:59;40.83;;;32.05;;
23222;SDS011;11780;13.904;100.620;2022-12-29T03:12:35;37.67;;;30.70;;
23222;SDS011;11780;13.904;100.620;2022-12-29T03:15:41;37.75;;;30.08;;
23222;SDS011;11780;13.904;100.620;2022-12-29T03:18:37;36.55;;;28.85;;
23222;SDS011;11780;13.904;100.620;2022-12-29T03:25:14;38.72;;;29.35;;
23222;SDS011;11780;13.904;100.620;2022-12-29T03:27:57;37.75;;;28.30;;
23222;SDS011;11780;13.904;100.620;2022-12-29T03:30:35;37.30;;;28.95;;
23222;SDS011;11780;13.904;100.620;2022-12-29T03:33:08;35.13;;;27.45;;
23222;SDS011;11780;13.904;100.620;2022-12-29T03:35:42;34.58;;;26.73;;
23222;SDS011;11780;13.904;100.620;2022-12-29T03:41:27;36.38;;;26.35;;
23222;SDS011;11780;13.904;100.620;2022-12-29T03:44:02;33.63;;;27.40;;
23222;SDS011;11780;13.904;100.620;2022-12-29T03:46:35;30.00;;;24.63;;
23222;SDS011;11780;13.904;100.620;2022-12-29T03:49:05;34.85;;;25.98;;
23222;SDS011;11780;13.904;100.620;2022-12-29T03:51:35;33.10;;;24.35;;
23222;SDS011;11780;13.904;100.620;2022-12-29T03:54:06;30.47;;;25.83;;
23222;SDS011;11780;13.904;100.620;2022-12-29T03:56:37;30.37;;;24.97;;
23222;SDS011;11780;13.904;100.620;2022-12-29T03:59:07;27.65;;;22.45;;
23222;SDS011;11780;13.904;100.620;2022-12-29T04:01:39;27.38;;;22.75;;
23222;SDS011;11780;13.904;100.620;2022-12-29T04:04:10;30.27;;;21.93;;
23222;SDS011;11780;13.904;100.620;2022-12-29T04:06:40;26.38;;;23.08;;
23222;SDS011;11780;13.904;100.620;2022-12-29T04:09:11;26.80;;;22.07;;
23222;SDS011;11780;13.904;100.620;2022-12-29T04:11:46;28.88;;;21.73;;
23222;SDS011;11780;13.904;100.620;2022-12-29T04:14:18;26.45;;;22.10;;
23222;SDS011;11780;13.904;100.620;2022-12-29T04:16:48;28.33;;;21.10;;
23222;SDS011;11780;13.904;100.620;2022-12-29T04:19:21;23.17;;;19.13;;
23222;SDS011;11780;13.904;100.620;2022-12-29T04:21:51;24.65;;;20.92;;
23222;SDS011;11780;13.904;100.620;2022-12-29T04:24:21;25.83;;;21.77;;
23222;SDS011;11780;13.904;100.620;2022-12-29T04:26:51;25.13;;;19.85;;
23222;SDS011;11780;13.904;100.620;2022-12-29T04:29:40;25.20;;;20.08;;
23222;SDS011;11780;13.904;100.620;2022-12-29T04:32:28;24.20;;;17.67;;
23222;SDS011;11780;13.904;100.620;2022-12-29T04:34:59;20.08;;;17.15;;
23222;SDS011;11780;13.904;100.620;2022-12-29T04:37:31;22.00;;;17.38;;
23222;SDS011;11780;13.904;100.620;2022-12-29T04:40:03;20.15;;;16.35;;
23222;SDS011;11780;13.904;100.620;2022-12-29T04:42:34;21.07;;;16.63;;
23222;SDS011;11780;13.904;100.620;2022-12-29T04:45:07;20.10;;;15.98;;
23222;SDS011;11780;13.904;100.620;2022-12-29T04:47:56;18.05;;;15.50;;
23222;SDS011;11780;13.904;100.620;2022-12-29T04:51:02;19.50;;;16.30;;
23222;SDS011;11780;13.904;100.620;2022-12-29T04:53:36;21.15;;;16.48;;
23222;SDS011;11780;13.904;100.620;2022-12-29T04:56:07;19.55;;;15.02;;
23222;SDS011;11780;13.904;100.620;2022-12-29T04:58:39;21.00;;;15.85;;
23222;SDS011;11780;13.904;100.620;2022-12-29T05:03:39;20.00;;;15.10;;
23222;SDS011;11780;13.904;100.620;2022-12-29T05:06:09;16.92;;;14.55;;
23222;SDS011;11780;13.904;100.620;2022-12-29T05:08:41;18.80;;;14.93;;
23222;SDS011;11780;13.904;100.620;2022-12-29T05:11:11;19.63;;;14.90;;
23222;SDS011;11780;13.904;100.620;2022-12-29T05:13:46;18.00;;;14.23;;
23222;SDS011;11780;13.904;100.620;2022-12-29T05:16:17;19.05;;;13.55;;
23222;SDS011;11780;13.904;100.620;2022-12-29T05:18:48;20.70;;;12.70;;
23222;SDS011;11780;13.904;100.620;2022-12-29T05:21:19;19.00;;;13.45;;
23222;SDS011;11780;13.904;100.620;2022-12-29T05:23:49;18.58;;;11.80;;
23222;SDS011;11780;13.904;100.620;2022-12-29T05:26:20;15.00;;;12.18;;
23222;SDS011;11780;13.904;100.620;2022-12-29T05:29:16;18.42;;;12.88;;
23222;SDS011;11780;13.904;100.620;2022-12-29T05:31:47;16.95;;;11.88;;
23222;SDS011;11780;13.904;100.620;2022-12-29T05:34:18;15.45;;;12.07;;
23222;SDS011;11780;13.904;100.620;2022-12-29T05:36:49;14.83;;;11.53;;
23222;SDS011;11780;13.904;100.620;2022-12-29T05:39:19;16.58;;;11.73;;
23222;SDS011;11780;13.904;100.620;2022-12-29T05:41:54;15.55;;;11.02;;
23222;SDS011;11780;13.904;100.620;2022-12-29T05:44:50;13.73;;;10.90;;
23222;SDS011;11780;13.904;100.620;2022-12-29T05:47:31;14.65;;;11.15;;
23222;SDS011;11780;13.904;100.620;2022-12-29T05:50:20;16.63;;;11.00;;
23222;SDS011;11780;13.904;100.620;2022-12-29T05:53:16;15.82;;;11.40;;
23222;SDS011;11780;13.904;100.620;2022-12-29T05:55:47;14.75;;;10.40;;
23222;SDS011;11780;13.904;100.620;2022-12-29T05:58:19;15.25;;;10.10;;
23222;SDS011;11780;13.904;100.620;2022-12-29T06:00:51;13.57;;;10.13;;
23222;SDS011;11780;13.904;100.620;2022-12-29T06:03:21;13.13;;;11.00;;
23222;SDS011;11780;13.904;100.620;2022-12-29T06:05:53;12.77;;;10.60;;
23222;SDS011;11780;13.904;100.620;2022-12-29T06:08:24;15.88;;;9.63;;
23222;SDS011;11780;13.904;100.620;2022-12-29T06:10:55;14.75;;;10.57;;
23222;SDS011;11780;13.904;100.620;2022-12-29T06:13:25;14.23;;;10.32;;
23222;SDS011;11780;13.904;100.620;2022-12-29T06:18:27;13.98;;;10.30;;
23222;SDS011;11780;13.904;100.620;2022-12-29T06:21:01;13.47;;;10.37;;
23222;SDS011;11780;13.904;100.620;2022-12-29T06:23:34;11.13;;;9.18;;
23222;SDS011;11780;13.904;100.620;2022-12-29T06:26:04;12.13;;;9.48;;
23222;SDS011;11780;13.904;100.620;2022-12-29T06:28:36;12.60;;;10.02;;
23222;SDS011;11780;13.904;100.620;2022-12-29T06:31:08;10.57;;;9.43;;
23222;SDS011;11780;13.904;100.620;2022-12-29T06:33:40;10.73;;;9.52;;
23222;SDS011;11780;13.904;100.620;2022-12-29T06:36:16;12.90;;;9.50;;
23222;SDS011;11780;13.904;100.620;2022-12-29T06:38:47;14.50;;;10.20;;
23222;SDS011;11780;13.904;100.620;2022-12-29T06:41:17;9.73;;;8.73;;
23222;SDS011;11780;13.904;100.620;2022-12-29T06:44:26;11.10;;;9.30;;
23222;SDS011;11780;13.904;100.620;2022-12-29T06:47:00;13.45;;;9.40;;
23222;SDS011;11780;13.904;100.620;2022-12-29T06:49:30;13.43;;;9.25;;
23222;SDS011;11780;13.904;100.620;2022-12-29T06:52:00;11.57;;;9.27;;
23222;SDS011;11780;13.904;100.620;2022-12-29T06:54:38;12.20;;;9.27;;
23222;SDS011;11780;13.904;100.620;2022-12-29T06:57:09;12.63;;;9.00;;
23222;SDS011;11780;13.904;100.620;2022-12-29T06:59:40;10.48;;;9.15;;
23222;SDS011;11780;13.904;100.620;2022-12-29T07:02:10;12.90;;;9.50;;
23222;SDS011;11780;13.904;100.620;2022-12-29T07:04:42;12.07;;;9.45;;
23222;SDS011;11780;13.904;100.620;2022-12-29T07:07:13;12.85;;;8.52;;
23222;SDS011;11780;13.904;100.620;2022-12-29T07:09:43;13.70;;;9.27;;
23222;SDS011;11780;13.904;100.620;2022-12-29T07:12:15;13.43;;;9.43;;
23222;SDS011;11780;13.904;100.620;2022-12-29T07:14:45;12.18;;;8.27;;
23222;SDS011;11780;13.904;100.620;2022-12-29T07:17:16;10.65;;;8.90;;
23222;SDS011;11780;13.904;100.620;2022-12-29T07:19:46;11.05;;;8.45;;
23222;SDS011;11780;13.904;100.620;2022-12-29T07:22:16;13.80;;;9.52;;
23222;SDS011;11780;13.904;100.620;2022-12-29T07:24:46;10.15;;;8.55;;
23222;SDS011;11780;13.904;100.620;2022-12-29T07:27:18;11.75;;;8.90;;
23222;SDS011;11780;13.904;100.620;2022-12-29T07:29:48;10.65;;;8.25;;
23222;SDS011;11780;13.904;100.620;2022-12-29T07:32:18;11.15;;;8.57;;
23222;SDS011;11780;13.904;100.620;2022-12-29T07:34:48;13.00;;;8.60;;
23222;SDS011;11780;13.904;100.620;2022-12-29T07:37:18;9.52;;;8.52;;
23222;SDS011;11780;13.904;100.620;2022-12-29T07:39:49;12.15;;;8.65;;
23222;SDS011;11780;13.904;100.620;2022-12-29T07:42:19;13.70;;;8.10;;
23222;SDS011;11780;13.904;100.620;2022-12-29T07:44:51;10.93;;;8.73;;
23222;SDS011;11780;13.904;100.620;2022-12-29T07:47:48;9.05;;;8.15;;
23222;SDS011;11780;13.904;100.620;2022-12-29T07:50:19;11.10;;;8.13;;
23222;SDS011;11780;13.904;100.620;2022-12-29T07:52:49;11.23;;;8.70;;
23222;SDS011;11780;13.904;100.620;2022-12-29T07:55:20;11.82;;;8.20;;
23222;SDS011;11780;13.904;100.620;2022-12-29T07:57:52;10.98;;;8.50;;
23222;SDS011;11780;13.904;100.620;2022-12-29T08:00:23;11.30;;;8.40;;
23222;SDS011;11780;13.904;100.620;2022-12-29T08:02:53;9.87;;;8.33;;
23222;SDS011;11780;13.904;100.620;2022-12-29T08:05:24;10.48;;;7.90;;
23222;SDS011;11780;13.904;100.620;2022-12-29T08:07:54;10.43;;;8.03;;
23222;SDS011;11780;13.904;100.620;2022-12-29T08:10:26;12.95;;;8.82;;
23222;SDS011;11780;13.904;100.620;2022-12-29T08:12:56;9.65;;;7.80;;
23222;SDS011;11780;13.904;100.620;2022-12-29T08:15:27;11.70;;;8.10;;
23222;SDS011;11780;13.904;100.620;2022-12-29T08:17:58;10.00;;;8.27;;
23222;SDS011;11780;13.904;100.620;2022-12-29T08:20:29;10.00;;;8.25;;
23222;SDS011;11780;13.904;100.620;2022-12-29T08:22:59;9.67;;;8.20;;
23222;SDS011;11780;13.904;100.620;2022-12-29T08:25:30;12.13;;;8.45;;
23222;SDS011;11780;13.904;100.620;2022-12-29T08:28:00;11.50;;;7.97;;
23222;SDS011;11780;13.904;100.620;2022-12-29T08:30:30;8.38;;;7.55;;
23222;SDS011;11780;13.904;100.620;2022-12-29T08:33:00;12.27;;;8.63;;
23222;SDS011;11780;13.904;100.620;2022-12-29T08:35:30;11.27;;;8.23;;
23222;SDS011;11780;13.904;100.620;2022-12-29T08:38:00;9.68;;;7.97;;
23222;SDS011;11780;13.904;100.620;2022-12-29T08:40:30;10.15;;;8.05;;
23222;SDS011;11780;13.904;100.620;2022-12-29T08:43:00;10.15;;;7.70;;
23222;SDS011;11780;13.904;100.620;2022-12-29T08:45:30;11.10;;;8.57;;
23222;SDS011;11780;13.904;100.620;2022-12-29T08:48:01;11.45;;;7.95;;
23222;SDS011;11780;13.904;100.620;2022-12-29T08:50:32;13.38;;;8.73;;
23222;SDS011;11780;13.904;100.620;2022-12-29T08:53:02;9.65;;;8.45;;
23222;SDS011;11780;13.904;100.620;2022-12-29T08:55:32;8.88;;;7.72;;
23222;SDS011;11780;13.904;100.620;2022-12-29T08:58:02;10.40;;;7.15;;
23222;SDS011;11780;13.904;100.620;2022-12-29T09:00:35;8.30;;;7.45;;
23222;SDS011;11780;13.904;100.620;2022-12-29T09:03:05;9.88;;;7.45;;
23222;SDS011;11780;13.904;100.620;2022-12-29T09:05:36;9.93;;;7.40;;
23222;SDS011;11780;13.904;100.620;2022-12-29T09:08:06;8.57;;;7.43;;
23222;SDS011;11780;13.904;100.620;2022-12-29T09:10:37;12.55;;;8.30;;
23222;SDS011;11780;13.904;100.620;2022-12-29T09:13:07;9.88;;;8.05;;
23222;SDS011;11780;13.904;100.620;2022-12-29T09:15:38;9.68;;;7.45;;
23222;SDS011;11780;13.904;100.620;2022-12-29T09:18:09;11.65;;;7.90;;
23222;SDS011;11780;13.904;100.620;2022-12-29T09:20:46;11.15;;;8.60;;
23222;SDS011;11780;13.904;100.620;2022-12-29T09:23:16;9.52;;;7.72;;
23222;SDS011;11780;13.904;100.620;2022-12-29T09:25:47;9.10;;;7.88;;
23222;SDS011;11780;13.904;100.620;2022-12-29T09:28:17;9.38;;;7.95;;
23222;SDS011;11780;13.904;100.620;2022-12-29T09:30:47;8.95;;;7.43;;
23222;SDS011;11780;13.904;100.620;2022-12-29T09:33:18;11.57;;;8.00;;
23222;SDS011;11780;13.904;100.620;2022-12-29T09:35:52;11.30;;;7.80;;
23222;SDS011;11780;13.904;100.620;2022-12-29T09:38:27;10.32;;;8.27;;
23222;SDS011;11780;13.904;100.620;2022-12-29T09:41:15;10.07;;;8.00;;
23222;SDS011;11780;13.904;100.620;2022-12-29T09:46:35;10.35;;;7.65;;
23222;SDS011;11780;13.904;100.620;2022-12-29T09:52:15;10.75;;;7.55;;
23222;SDS011;11780;13.904;100.620;2022-12-29T09:54:52;9.45;;;7.57;;
23222;SDS011;11780;13.904;100.620;2022-12-29T10:00:47;13.15;;;7.88;;
23222;SDS011;11780;13.904;100.620;2022-12-29T10:03:51;9.40;;;7.30;;
23222;SDS011;11780;13.904;100.620;2022-12-29T10:06:25;9.52;;;7.63;;
23222;SDS011;11780;13.904;100.620;2022-12-29T10:23:50;9.82;;;7.85;;
23222;SDS011;11780;13.904;100.620;2022-12-29T10:26:23;9.55;;;7.03;;
23222;SDS011;11780;13.904;100.620;2022-12-29T10:29:05;9.10;;;7.25;;
23222;SDS011;11780;13.904;100.620;2022-12-29T10:34:28;7.72;;;6.93;;
23222;SDS011;11780;13.904;100.620;2022-12-29T10:37:05;10.63;;;8.15;;
23222;SDS011;11780;13.904;100.620;2022-12-29T10:39:51;9.80;;;7.50;;
23222;SDS011;11780;13.904;100.620;2022-12-29T10:42:26;10.07;;;7.97;;
23222;SDS011;11780;13.904;100.620;2022-12-29T10:45:10;12.32;;;7.60;;
23222;SDS011;11780;13.904;100.620;2022-12-29T10:48:46;8.90;;;7.20;;
23222;SDS011;11780;13.904;100.620;2022-12-29T10:50:58;10.45;;;7.55;;
23222;SDS011;11780;13.904;100.620;2022-12-29T10:53:34;10.13;;;7.53;;
23222;SDS011;11780;13.904;100.620;2022-12-29T10:56:21;8.10;;;7.00;;
23222;SDS011;11780;13.904;100.620;2022-12-29T10:59:26;10.25;;;7.95;;
23222;SDS011;11780;13.904;100.620;2022-12-29T11:04:53;9.85;;;7.50;;
23222;SDS011;11780;13.904;100.620;2022-12-29T11:07:38;8.82;;;7.43;;
23222;SDS011;11780;13.904;100.620;2022-12-29T11:13:13;9.02;;;7.25;;
23222;SDS011;11780;13.904;100.620;2022-12-29T11:15:50;11.90;;;7.68;;
23222;SDS011;11780;13.904;100.620;2022-12-29T11:18:32;11.10;;;8.23;;
23222;SDS011;11780;13.904;100.620;2022-12-29T11:21:10;9.90;;;7.13;;
23222;SDS011;11780;13.904;100.620;2022-12-29T11:23:57;10.32;;;7.75;;
23222;SDS011;11780;13.904;100.620;2022-12-29T11:26:30;8.02;;;6.97;;
23222;SDS011;11780;13.904;100.620;2022-12-29T11:31:41;10.70;;;7.90;;
23222;SDS011;11780;13.904;100.620;2022-12-29T11:34:17;8.57;;;7.68;;
23222;SDS011;11780;13.904;100.620;2022-12-29T11:37:03;14.10;;;8.23;;
23222;SDS011;11780;13.904;100.620;2022-12-29T11:42:35;13.85;;;8.70;;
23222;SDS011;11780;13.904;100.620;2022-12-29T11:45:18;11.75;;;8.32;;
23222;SDS011;11780;13.904;100.620;2022-12-29T11:48:16;12.07;;;8.43;;
23222;SDS011;11780;13.904;100.620;2022-12-29T11:50:53;11.68;;;8.20;;
23222;SDS011;11780;13.904;100.620;2022-12-29T11:53:29;11.77;;;7.95;;
23222;SDS011;11780;13.904;100.620;2022-12-29T11:56:14;12.55;;;8.57;;
23222;SDS011;11780;13.904;100.620;2022-12-29T11:58:47;9.48;;;8.13;;
23222;SDS011;11780;13.904;100.620;2022-12-29T12:01:21;15.88;;;9.07;;
23222;SDS011;11780;13.904;100.620;2022-12-29T12:04:22;12.52;;;8.30;;
23222;SDS011;11780;13.904;100.620;2022-12-29T12:07:03;14.70;;;9.45;;
23222;SDS011;11780;13.904;100.620;2022-12-29T12:09:43;10.15;;;8.73;;
23222;SDS011;11780;13.904;100.620;2022-12-29T12:12:23;11.83;;;8.93;;
23222;SDS011;11780;13.904;100.620;2022-12-29T12:15:01;11.10;;;8.65;;
23222;SDS011;11780;13.904;100.620;2022-12-29T12:17:53;10.18;;;8.95;;
23222;SDS011;11780;13.904;100.620;2022-12-29T12:25:57;12.05;;;9.35;;
23222;SDS011;11780;13.904;100.620;2022-12-29T12:28:34;14.05;;;9.52;;
23222;SDS011;11780;13.904;100.620;2022-12-29T12:34:32;14.10;;;10.70;;
23222;SDS011;11780;13.904;100.620;2022-12-29T12:40:30;15.73;;;10.65;;
23222;SDS011;11780;13.904;100.620;2022-12-29T12:54:40;18.17;;;10.98;;
23222;SDS011;11780;13.904;100.620;2022-12-29T12:57:40;16.57;;;10.17;;
23222;SDS011;11780;13.904;100.620;2022-12-29T13:00:24;15.73;;;11.10;;
23222;SDS011;11780;13.904;100.620;2022-12-29T13:23:56;22.33;;;15.50;;
23222;SDS011;11780;13.904;100.620;2022-12-29T13:29:04;22.30;;;15.65;;
23222;SDS011;11780;13.904;100.620;2022-12-29T13:37:24;23.27;;;15.27;;
23222;SDS011;11780;13.904;100.620;2022-12-29T13:40:02;22.08;;;14.00;;
23222;SDS011;11780;13.904;100.620;2022-12-29T13:42:43;21.42;;;13.60;;
23222;SDS011;11780;13.904;100.620;2022-12-29T13:45:24;20.52;;;13.82;;
23222;SDS011;11780;13.904;100.620;2022-12-29T13:49:41;18.52;;;12.68;;
23222;SDS011;11780;13.904;100.620;2022-12-29T13:52:24;16.60;;;12.63;;
23222;SDS011;11780;13.904;100.620;2022-12-29T13:58:32;14.27;;;11.45;;
23222;SDS011;11780;13.904;100.620;2022-12-29T14:01:08;18.13;;;12.73;;
23222;SDS011;11780;13.904;100.620;2022-12-29T14:04:00;19.05;;;12.15;;
23222;SDS011;11780;13.904;100.620;2022-12-29T14:06:39;19.50;;;12.93;;
23222;SDS011;11780;13.904;100.620;2022-12-29T14:09:32;16.33;;;13.55;;
23222;SDS011;11780;13.904;100.620;2022-12-29T14:12:18;17.85;;;12.23;;
23222;SDS011;11780;13.904;100.620;2022-12-29T14:14:49;18.98;;;13.27;;
23222;SDS011;11780;13.904;100.620;2022-12-29T14:17:20;20.98;;;13.15;;
23222;SDS011;11780;13.904;100.620;2022-12-29T14:19:51;17.70;;;12.77;;
23222;SDS011;11780;13.904;100.620;2022-12-29T14:22:23;18.00;;;13.20;;
23222;SDS011;11780;13.904;100.620;2022-12-29T14:24:59;19.38;;;13.80;;
23222;SDS011;11780;13.904;100.620;2022-12-29T14:30:00;21.05;;;13.73;;
23222;SDS011;11780;13.904;100.620;2022-12-29T14:35:37;17.65;;;13.45;;
23222;SDS011;11780;13.904;100.620;2022-12-29T14:38:19;19.23;;;14.23;;
23222;SDS011;11780;13.904;100.620;2022-12-29T14:41:15;16.90;;;13.45;;
23222;SDS011;11780;13.904;100.620;2022-12-29T14:43:55;20.23;;;14.25;;
23222;SDS011;11780;13.904;100.620;2022-12-29T14:46:45;21.52;;;14.00;;
23222;SDS011;11780;13.904;100.620;2022-12-29T14:49:32;20.23;;;14.25;;
23222;SDS011;11780;13.904;100.620;2022-12-29T14:52:13;17.92;;;14.32;;
23222;SDS011;11780;13.904;100.620;2022-12-29T14:54:49;21.52;;;14.18;;
23222;SDS011;11780;13.904;100.620;2022-12-29T15:00:04;18.65;;;14.25;;
23222;SDS011;11780;13.904;100.620;2022-12-29T15:02:48;19.70;;;13.85;;
23222;SDS011;11780;13.904;100.620;2022-12-29T15:05:26;18.67;;;14.15;;
23222;SDS011;11780;13.904;100.620;2022-12-29T15:08:03;17.48;;;13.57;;
23222;SDS011;11780;13.904;100.620;2022-12-29T15:10:40;19.05;;;14.48;;
23222;SDS011;11780;13.904;100.620;2022-12-29T15:13:16;21.50;;;14.23;;
23222;SDS011;11780;13.904;100.620;2022-12-29T15:15:51;18.50;;;13.98;;
23222;SDS011;11780;13.904;100.620;2022-12-29T15:18:25;17.98;;;14.57;;
23222;SDS011;11780;13.904;100.620;2022-12-29T15:21:02;19.67;;;14.55;;
23222;SDS011;11780;13.904;100.620;2022-12-29T15:23:36;25.98;;;15.52;;
23222;SDS011;11780;13.904;100.620;2022-12-29T15:26:07;19.80;;;15.27;;
23222;SDS011;11780;13.904;100.620;2022-12-29T15:28:40;22.80;;;14.77;;
23222;SDS011;11780;13.904;100.620;2022-12-29T15:34:08;20.50;;;14.93;;
23222;SDS011;11780;13.904;100.620;2022-12-29T15:36:41;18.60;;;14.63;;
23222;SDS011;11780;13.904;100.620;2022-12-29T15:39:17;25.40;;;15.10;;
23222;SDS011;11780;13.904;100.620;2022-12-29T15:42:09;20.77;;;14.32;;
23222;SDS011;11780;13.904;100.620;2022-12-29T15:44:47;22.70;;;14.73;;
23222;SDS011;11780;13.904;100.620;2022-12-29T15:47:29;22.23;;;14.57;;
23222;SDS011;11780;13.904;100.620;2022-12-29T15:50:05;21.58;;;13.88;;
23222;SDS011;11780;13.904;100.620;2022-12-29T15:52:43;20.88;;;15.00;;
23222;SDS011;11780;13.904;100.620;2022-12-29T15:58:20;21.40;;;14.07;;
23222;SDS011;11780;13.904;100.620;2022-12-29T16:00:54;22.10;;;14.30;;
23222;SDS011;11780;13.904;100.620;2022-12-29T16:03:27;19.20;;;14.07;;
23222;SDS011;11780;13.904;100.620;2022-12-29T16:06:09;18.77;;;14.05;;
23222;SDS011;11780;13.904;100.620;2022-12-29T16:08:55;19.55;;;14.25;;
23222;SDS011;11780;13.904;100.620;2022-12-29T16:11:40;18.35;;;14.52;;
23222;SDS011;11780;13.904;100.620;2022-12-29T16:14:17;17.92;;;14.73;;
23222;SDS011;11780;13.904;100.620;2022-12-29T16:16:49;20.13;;;14.13;;
23222;SDS011;11780;13.904;100.620;2022-12-29T16:22:12;21.42;;;15.45;;
23222;SDS011;11780;13.904;100.620;2022-12-29T16:24:47;19.50;;;14.55;;
23222;SDS011;11780;13.904;100.620;2022-12-29T16:29:52;17.13;;;13.57;;
23222;SDS011;11780;13.904;100.620;2022-12-29T16:32:25;20.27;;;14.05;;
23222;SDS011;11780;13.904;100.620;2022-12-29T16:38:13;18.73;;;13.30;;
23222;SDS011;11780;13.904;100.620;2022-12-29T16:43:31;17.98;;;13.48;;
23222;SDS011;11780;13.904;100.620;2022-12-29T16:48:59;24.00;;;14.70;;
23222;SDS011;11780;13.904;100.620;2022-12-29T16:51:33;20.73;;;13.93;;
23222;SDS011;11780;13.904;100.620;2022-12-29T16:54:05;21.92;;;15.25;;
23222;SDS011;11780;13.904;100.620;2022-12-29T16:56:44;18.77;;;14.05;;
23222;SDS011;11780;13.904;100.620;2022-12-29T17:01:48;19.55;;;15.00;;
23222;SDS011;11780;13.904;100.620;2022-12-29T17:04:18;24.20;;;14.55;;
23222;SDS011;11780;13.904;100.620;2022-12-29T17:06:49;23.90;;;15.60;;
23222;SDS011;11780;13.904;100.620;2022-12-29T17:09:26;22.40;;;15.55;;
23222;SDS011;11780;13.904;100.620;2022-12-29T17:11:58;18.75;;;15.40;;
23222;SDS011;11780;13.904;100.620;2022-12-29T17:14:47;22.85;;;14.82;;
23222;SDS011;11780;13.904;100.620;2022-12-29T17:17:30;21.88;;;16.20;;
23222;SDS011;11780;13.904;100.620;2022-12-29T17:20:08;22.35;;;16.40;;
23222;SDS011;11780;13.904;100.620;2022-12-29T17:22:58;26.08;;;17.17;;
23222;SDS011;11780;13.904;100.620;2022-12-29T17:25:30;23.60;;;15.77;;
23222;SDS011;11780;13.904;100.620;2022-12-29T17:28:11;22.30;;;15.98;;
23222;SDS011;11780;13.904;100.620;2022-12-29T17:30:51;23.55;;;16.63;;
23222;SDS011;11780;13.904;100.620;2022-12-29T17:33:23;20.90;;;15.93;;
23222;SDS011;11780;13.904;100.620;2022-12-29T17:35:53;20.77;;;15.43;;
23222;SDS011;11780;13.904;100.620;2022-12-29T17:38:30;21.23;;;17.50;;
23222;SDS011;11780;13.904;100.620;2022-12-29T17:41:03;21.20;;;16.77;;
23222;SDS011;11780;13.904;100.620;2022-12-29T17:43:40;25.67;;;17.63;;
23222;SDS011;11780;13.904;100.620;2022-12-29T17:46:10;21.35;;;15.75;;
23222;SDS011;11780;13.904;100.620;2022-12-29T17:48:40;22.57;;;16.27;;
23222;SDS011;11780;13.904;100.620;2022-12-29T17:51:19;23.75;;;18.00;;
23222;SDS011;11780;13.904;100.620;2022-12-29T17:53:50;23.38;;;16.25;;